Highland Park, Illinois
Current Conditions -  °F | °C
As of 6:52 PM on Thursday 27 Nov 2014 (Local Time) from KPWK Reporting Station
Clear Clear  
Wind Chill: 10°   Ceiling: Unl
Heat Index: 17°   Visibility: 10mi
Dew Point:   Wind: 5mph
Humidity: 71%   Direction: 330°NNW
Pressure: 30.42"   Gusts: NA
Location:  42.19°N, 87.8°W
Report Text: KPWK 280052Z 33004KT 10SM CLR M08/M13 A3042 RMK AO2 SLP311 T10831128
Loading
Personal Weather Stations






























Interactive Weather Map New forecast layout! Learn more

10-Day Weather Forecast

Advertisements
Track Severe Weather on mobile